Time;durP1;ratioP1;P1;durP2;ratioP2;P2;SDS_P1;SDS_P2;PMS_P1;PMS_P2;Temp;Humidity;BMP_temperature;BMP_pressure;BME280_temperature;BME280_humidity;BME280_pressure;Samples;Min_cycle;Max_cycle;Signal;HPM_P1;HPM_P2
2023/04/03 00:01:13;;;;;;;8.93;3.35;;;1.40;99.90;;;;;;5022781;28;20151;-80
2023/04/03 00:03:41;;;;;;;11.43;4.15;;;1.30;99.90;;;;;;5021456;28;20030;-80
2023/04/03 00:06:08;;;;;;;10.10;3.30;;;1.30;99.90;;;;;;5025169;28;20047;-80
2023/04/03 00:08:34;;;;;;;6.82;2.97;;;1.20;99.90;;;;;;5021121;28;20442;-80
2023/04/03 00:11:00;;;;;;;10.02;3.08;;;1.20;99.90;;;;;;5018220;28;20033;-80
2023/04/03 00:13:26;;;;;;;6.95;3.03;;;1.20;99.90;;;;;;5021366;28;20021;-80
2023/04/03 00:15:52;;;;;;;10.95;3.13;;;1.20;99.90;;;;;;5025461;28;20037;-80
2023/04/03 00:18:18;;;;;;;5.38;2.40;;;1.10;99.90;;;;;;5019981;28;20036;-80
2023/04/03 00:20:44;;;;;;;6.18;2.78;;;1.10;99.90;;;;;;5021608;28;20026;-80
2023/04/03 00:23:09;;;;;;;10.38;4.20;;;1.10;99.90;;;;;;5018563;28;20382;-80
2023/04/03 00:25:36;;;;;;;8.10;2.85;;;1.10;99.90;;;;;;5019533;28;20613;-80
2023/04/03 00:28:02;;;;;;;11.10;3.35;;;1.00;99.90;;;;;;5015456;28;20042;-80
2023/04/03 00:30:28;;;;;;;8.05;3.35;;;1.00;99.90;;;;;;5020364;28;20520;-80
2023/04/03 00:32:57;;;;;;;11.23;4.53;;;1.00;99.90;;;;;;5018713;28;20018;-81
2023/04/03 00:35:24;;;;;;;8.57;3.55;;;0.90;99.90;;;;;;5016477;28;20061;-80
2023/04/03 00:37:53;;;;;;;9.65;3.72;;;0.90;99.90;;;;;;5018781;28;20035;-80
2023/04/03 00:40:22;;;;;;;12.77;3.88;;;0.90;99.90;;;;;;5021756;28;20072;-80
2023/04/03 00:42:51;;;;;;;14.48;4.28;;;0.90;99.90;;;;;;5021619;28;20049;-80
2023/04/03 00:45:36;;;;;;;10.48;3.20;;;0.80;99.90;;;;;;5018472;28;20383;-80
2023/04/03 00:48:05;;;;;;;14.27;3.63;;;0.80;99.90;;;;;;5022794;28;20457;-80
2023/04/03 00:50:33;;;;;;;13.15;3.65;;;0.80;99.90;;;;;;5020684;28;20513;-80
2023/04/03 00:53:00;;;;;;;9.00;3.75;;;0.90;99.90;;;;;;5021480;28;20022;-80
2023/04/03 00:55:25;;;;;;;7.75;3.20;;;0.90;99.90;;;;;;5021111;28;20025;-80
2023/04/03 00:57:52;;;;;;;14.20;3.03;;;0.80;99.90;;;;;;5023648;28;20112;-80
2023/04/03 01:00:22;;;;;;;17.73;4.13;;;0.90;99.90;;;;;;5014948;28;20022;-80
2023/04/03 01:02:47;;;;;;;10.18;3.78;;;0.90;99.90;;;;;;5020226;28;20141;-79
2023/04/03 01:05:16;;;;;;;12.15;4.20;;;0.90;99.90;;;;;;5015289;28;20128;-80
2023/04/03 01:07:42;;;;;;;19.90;4.18;;;1.00;99.90;;;;;;5012762;28;20037;-80
2023/04/03 01:10:14;;;;;;;19.20;4.53;;;1.00;99.90;;;;;;5023479;28;20030;-80
2023/04/03 01:12:42;;;;;;;14.52;4.75;;;1.00;99.90;;;;;;5022926;28;20083;-80
2023/04/03 01:15:12;;;;;;;14.52;5.07;;;1.00;99.90;;;;;;5023575;28;21575;-80
2023/04/03 01:17:49;;;;;;;20.50;5.95;;;1.00;99.90;;;;;;5022357;28;20074;-80
2023/04/03 01:20:21;;;;;;;12.73;4.10;;;1.00;99.90;;;;;;5016994;28;20040;-80
2023/04/03 01:22:50;;;;;;;10.38;3.80;;;1.00;99.90;;;;;;5020671;28;20026;-80
2023/04/03 01:25:15;;;;;;;10.18;3.80;;;1.00;99.90;;;;;;5018824;28;20099;-80
2023/04/03 01:27:41;;;;;;;10.88;3.10;;;1.00;99.90;;;;;;5021531;28;20021;-80
2023/04/03 01:30:08;;;;;;;10.30;4.10;;;1.00;99.90;;;;;;5021724;28;20498;-80
2023/04/03 01:32:33;;;;;;;7.90;2.70;;;1.00;99.90;;;;;;5022397;28;20025;-80
2023/04/03 01:34:59;;;;;;;13.57;3.40;;;1.00;99.90;;;;;;5022531;28;20036;-80
2023/04/03 01:37:24;;;;;;;8.65;3.83;;;1.00;99.90;;;;;;5016891;28;20045;-80
2023/04/03 01:39:50;;;;;;;12.93;3.38;;;0.90;99.90;;;;;;5024138;28;20033;-80
2023/04/03 01:42:16;;;;;;;12.15;3.45;;;0.90;99.90;;;;;;5021589;28;20095;-80
2023/04/03 01:44:41;;;;;;;9.13;3.28;;;0.90;99.90;;;;;;5015942;28;20083;-80
2023/04/03 01:47:07;;;;;;;10.48;2.85;;;0.90;99.90;;;;;;5020116;28;20037;-80
2023/04/03 01:49:32;;;;;;;12.57;3.42;;;0.90;99.90;;;;;;5019779;28;20475;-80
2023/04/03 01:51:59;;;;;;;13.20;3.78;;;1.00;99.90;;;;;;5018017;28;20120;-80
2023/04/03 01:54:25;;;;;;;7.68;3.35;;;0.90;99.90;;;;;;5018833;28;20405;-80
2023/04/03 01:56:51;;;;;;;11.90;3.28;;;1.00;99.90;;;;;;5023265;28;20129;-80
2023/04/03 01:59:17;;;;;;;10.75;3.42;;;0.90;99.90;;;;;;5019514;28;20425;-80
2023/04/03 02:01:45;;;;;;;10.85;2.80;;;0.80;99.90;;;;;;5016180;28;20037;-80
2023/04/03 02:04:13;;;;;;;11.88;2.80;;;0.80;99.90;;;;;;5015139;28;20041;-80
2023/04/03 02:06:38;;;;;;;8.88;2.67;;;0.80;99.90;;;;;;5020354;28;20018;-80
2023/04/03 02:09:04;;;;;;;15.93;3.33;;;0.80;99.90;;;;;;5014253;28;20044;-80
2023/04/03 02:11:30;;;;;;;10.57;2.88;;;0.80;99.90;;;;;;5015629;28;20551;-80
2023/04/03 02:13:55;;;;;;;10.98;3.50;;;0.80;99.90;;;;;;5023564;28;20041;-80
2023/04/03 02:16:21;;;;;;;11.68;2.90;;;0.80;99.90;;;;;;5022033;28;20409;-80
2023/04/03 02:18:47;;;;;;;14.60;3.33;;;0.80;99.90;;;;;;5023731;28;20386;-80
2023/04/03 02:21:13;;;;;;;15.68;3.30;;;0.80;99.90;;;;;;5024320;28;20032;-80
2023/04/03 02:23:39;;;;;;;20.55;3.30;;;0.70;99.90;;;;;;5022852;28;20034;-80
2023/04/03 02:26:10;;;;;;;9.77;3.28;;;0.70;99.90;;;;;;5013574;28;20057;-80
2023/04/03 02:28:36;;;;;;;9.50;3.03;;;0.70;99.90;;;;;;5023026;28;20052;-80
2023/04/03 02:31:02;;;;;;;8.75;3.17;;;0.70;99.90;;;;;;5024577;28;20029;-80
2023/04/03 02:33:28;;;;;;;11.80;3.35;;;0.70;99.90;;;;;;5025865;28;20025;-79
2023/04/03 02:35:55;;;;;;;8.63;2.95;;;0.70;99.90;;;;;;5027820;28;20526;-79
2023/04/03 02:38:21;;;;;;;17.80;3.03;;;0.60;99.90;;;;;;5023330;28;20096;-80
2023/04/03 02:40:47;;;;;;;9.82;2.67;;;0.60;99.90;;;;;;5020442;28;20478;-80
2023/04/03 02:43:12;;;;;;;12.32;3.10;;;0.60;99.90;;;;;;5023500;28;20032;-80
2023/04/03 02:45:38;;;;;;;8.32;3.05;;;0.60;99.90;;;;;;5022152;28;20115;-79
2023/04/03 02:48:04;;;;;;;9.23;3.28;;;0.60;99.90;;;;;;5017993;28;20029;-79
2023/04/03 02:50:30;;;;;;;8.07;2.50;;;0.60;99.90;;;;;;5019750;28;20044;-80
2023/04/03 02:52:55;;;;;;;7.40;2.50;;;0.50;99.90;;;;;;5024262;28;20241;-80
2023/04/03 02:55:21;;;;;;;8.93;2.97;;;0.50;99.90;;;;;;5025149;28;20079;-79
2023/04/03 02:57:47;;;;;;;13.15;2.97;;;0.40;99.90;;;;;;5023585;28;20022;-79
2023/04/03 03:00:14;;;;;;;7.80;2.88;;;0.40;99.90;;;;;;5026895;28;20056;-79
2023/04/03 03:02:40;;;;;;;10.23;3.15;;;0.40;99.90;;;;;;5024939;28;20107;-79
2023/04/03 03:05:08;;;;;;;14.13;2.95;;;0.30;99.90;;;;;;5018974;28;20129;-80
2023/04/03 03:07:34;;;;;;;11.88;4.10;;;0.30;99.90;;;;;;5015436;28;20033;-80
2023/04/03 03:10:00;;;;;;;10.68;2.58;;;0.30;99.90;;;;;;5021491;28;20364;-80
2023/04/03 03:12:26;;;;;;;10.10;3.17;;;0.30;99.90;;;;;;5020616;28;20025;-79
2023/04/03 03:14:51;;;;;;;10.73;2.47;;;0.20;99.90;;;;;;5025665;28;20032;-79
2023/04/03 03:17:17;;;;;;;15.15;4.25;;;0.20;99.90;;;;;;5023513;28;20032;-79
2023/04/03 03:19:43;;;;;;;8.75;3.08;;;0.30;99.90;;;;;;5020123;28;20056;-80
2023/04/03 03:22:08;;;;;;;12.27;3.10;;;0.20;99.90;;;;;;5016962;28;20100;-80
2023/04/03 03:24:34;;;;;;;8.25;2.95;;;0.20;99.90;;;;;;5013902;28;20418;-80
2023/04/03 03:27:00;;;;;;;20.27;4.15;;;0.10;99.90;;;;;;5024898;28;20537;-79
2023/04/03 03:29:26;;;;;;;13.55;3.28;;;0.00;99.90;;;;;;5023066;28;20060;-80
2023/04/03 03:31:51;;;;;;;8.32;2.67;;;0.00;99.90;;;;;;5024349;28;20033;-80
2023/04/03 03:34:17;;;;;;;11.70;3.30;;;0.00;99.90;;;;;;5023803;28;20029;-80
2023/04/03 03:36:42;;;;;;;7.97;3.00;;;0.00;99.90;;;;;;5019511;28;20661;-79
2023/04/03 03:39:08;;;;;;;13.10;3.00;;;0.00;99.90;;;;;;5021749;28;20021;-80
2023/04/03 03:41:34;;;;;;;13.70;3.45;;;0.00;99.90;;;;;;5020600;28;20552;-80
2023/04/03 03:44:00;;;;;;;8.45;2.60;;;-0.10;99.90;;;;;;5022137;28;20033;-80
2023/04/03 03:46:27;;;;;;;11.10;2.85;;;-0.10;99.90;;;;;;5022198;28;20040;-80
2023/04/03 03:48:52;;;;;;;14.30;3.13;;;-0.20;99.90;;;;;;5016893;28;20037;-80
2023/04/03 03:51:18;;;;;;;18.38;3.20;;;-0.20;99.90;;;;;;5023829;28;20029;-80
2023/04/03 03:53:43;;;;;;;14.70;3.53;;;-0.20;99.90;;;;;;5019326;28;20034;-80
2023/04/03 03:56:10;;;;;;;5.93;2.72;;;-0.20;99.90;;;;;;5024810;28;20025;-80
2023/04/03 03:58:36;;;;;;;13.20;3.25;;;-0.20;99.90;;;;;;5023289;28;20510;-80
2023/04/03 04:01:06;;;;;;;16.20;3.45;;;-0.20;99.90;;;;;;5021795;28;20034;-81
2023/04/03 04:03:32;;;;;;;8.02;3.13;;;-0.20;99.90;;;;;;5021340;28;20112;-80
2023/04/03 04:06:01;;;;;;;19.10;3.47;;;-0.20;99.90;;;;;;5020787;28;20069;-80
2023/04/03 04:08:26;;;;;;;6.38;2.67;;;-0.20;99.90;;;;;;5022703;28;20036;-80
2023/04/03 04:10:52;;;;;;;15.68;3.35;;;-0.20;99.90;;;;;;5023667;28;20025;-80
2023/04/03 04:13:18;;;;;;;15.70;3.63;;;-0.20;99.90;;;;;;5013213;28;20025;-80
2023/04/03 04:15:44;;;;;;;16.00;4.30;;;-0.30;99.90;;;;;;5020936;28;20029;-80
2023/04/03 04:18:09;;;;;;;15.85;3.40;;;-0.30;99.90;;;;;;5019363;28;20216;-80
2023/04/03 04:20:35;;;;;;;11.77;3.33;;;-0.30;99.90;;;;;;5018723;28;20029;-81
2023/04/03 04:23:01;;;;;;;19.15;3.83;;;-0.30;99.90;;;;;;5019865;28;20404;-80
2023/04/03 04:25:26;;;;;;;12.75;2.95;;;-0.30;99.90;;;;;;5017706;28;20045;-81
2023/04/03 04:27:52;;;;;;;17.73;3.45;;;-0.40;99.90;;;;;;5012117;28;20124;-81
2023/04/03 04:30:17;;;;;;;10.10;3.00;;;-0.40;99.90;;;;;;5014368;28;20406;-82
2023/04/03 04:32:43;;;;;;;10.23;3.17;;;-0.40;99.90;;;;;;5019097;28;20091;-81
2023/04/03 04:35:09;;;;;;;6.68;2.88;;;-0.40;99.90;;;;;;5021220;28;20029;-82
2023/04/03 04:37:35;;;;;;;15.90;2.85;;;-0.40;99.90;;;;;;5014241;28;20047;-80
2023/04/03 04:40:01;;;;;;;18.17;3.55;;;-0.50;99.90;;;;;;5018685;28;20030;-81
2023/04/03 04:42:27;;;;;;;19.20;3.45;;;-0.50;99.90;;;;;;5015609;28;20067;-80
2023/04/03 04:44:53;;;;;;;12.52;3.08;;;-0.50;99.90;;;;;;5017473;28;20069;-81
2023/04/03 04:47:18;;;;;;;11.90;3.15;;;-0.50;99.90;;;;;;5016701;28;20033;-80
2023/04/03 04:49:47;;;;;;;9.00;2.95;;;-0.50;99.90;;;;;;5015589;28;20397;-80
2023/04/03 04:52:13;;;;;;;20.33;5.13;;;-0.50;99.90;;;;;;5005599;28;20068;-80
2023/04/03 04:54:38;;;;;;;16.50;3.40;;;-0.60;99.90;;;;;;5021276;28;20487;-80
2023/04/03 04:57:04;;;;;;;11.70;3.13;;;-0.60;99.90;;;;;;5021964;28;20029;-80
2023/04/03 04:59:30;;;;;;;16.63;3.42;;;-0.60;99.90;;;;;;5015936;28;20112;-81
2023/04/03 05:01:55;;;;;;;15.52;3.35;;;-0.60;99.90;;;;;;5021168;28;20047;-81
2023/04/03 05:04:21;;;;;;;16.95;3.25;;;-0.60;99.90;;;;;;5021790;28;20033;-81
2023/04/03 05:06:47;;;;;;;11.82;3.47;;;-0.60;99.90;;;;;;5023100;28;20545;-82
2023/04/03 05:09:15;;;;;;;9.77;3.30;;;-0.60;99.90;;;;;;5024852;28;20041;-83
2023/04/03 05:11:42;;;;;;;11.57;3.08;;;-0.60;99.90;;;;;;5021003;28;20030;-82
2023/04/03 05:14:08;;;;;;;8.02;3.55;;;-0.60;99.90;;;;;;5021988;28;20029;-80
2023/04/03 05:16:34;;;;;;;16.25;4.10;;;-0.60;99.90;;;;;;5013833;28;20085;-81
2023/04/03 05:19:00;;;;;;;10.75;3.67;;;-0.50;99.90;;;;;;5021559;28;20493;-82
2023/04/03 05:21:27;;;;;;;13.07;3.65;;;-0.50;99.90;;;;;;5019516;28;20017;-81
2023/04/03 05:23:53;;;;;;;11.75;3.60;;;-0.50;99.90;;;;;;5016278;28;20030;-81
2023/04/03 05:26:18;;;;;;;11.82;4.05;;;-0.40;99.90;;;;;;5022218;28;20033;-80
2023/04/03 05:28:44;;;;;;;9.98;3.75;;;-0.50;99.90;;;;;;5009373;28;20066;-81
2023/04/03 05:31:09;;;;;;;15.02;4.00;;;-0.40;99.90;;;;;;5022796;28;20017;-81
2023/04/03 05:33:35;;;;;;;19.45;4.65;;;-0.40;99.90;;;;;;5018655;28;20025;-81
2023/04/03 05:36:06;;;;;;;21.63;4.05;;;-0.40;99.90;;;;;;5021082;28;20025;-82
2023/04/03 05:38:33;;;;;;;17.38;3.88;;;-0.30;99.90;;;;;;5022829;28;20021;-82
2023/04/03 05:40:58;;;;;;;11.07;3.38;;;-0.30;99.90;;;;;;5016981;28;20028;-82
2023/04/03 05:43:24;;;;;;;12.02;3.13;;;-0.20;99.90;;;;;;5016370;28;20025;-82
2023/04/03 05:45:51;;;;;;;10.90;3.63;;;-0.20;99.90;;;;;;5022207;28;20040;-82
2023/04/03 05:48:17;;;;;;;14.45;3.53;;;-0.20;99.90;;;;;;5023153;28;20067;-82
2023/04/03 05:50:43;;;;;;;9.07;3.78;;;-0.20;99.90;;;;;;5018953;28;20060;-81
2023/04/03 05:53:31;;;;;;;15.00;4.78;;;-0.20;99.90;;;;;;5023695;28;20439;-81
2023/04/03 05:55:56;;;;;;;17.50;4.07;;;-0.10;99.90;;;;;;5021967;28;20116;-81
2023/04/03 05:58:22;;;;;;;19.30;5.78;;;-0.10;99.90;;;;;;5024347;28;20108;-81
2023/04/03 06:00:48;;;;;;;23.40;5.43;;;-0.10;99.90;;;;;;5026098;28;20030;-82
2023/04/03 06:03:17;;;;;;;15.02;5.35;;;-0.10;99.90;;;;;;5021042;28;20030;-84
2023/04/03 06:05:43;;;;;;;20.10;6.88;;;-0.10;99.90;;;;;;5008180;28;20084;-84
2023/04/03 06:08:09;;;;;;;16.90;4.95;;;-0.10;99.90;;;;;;5018837;28;20053;-81
2023/04/03 06:10:36;;;;;;;16.17;5.47;;;-0.10;99.90;;;;;;5025758;28;20143;-84
2023/04/03 06:13:02;;;;;;;16.73;4.82;;;-0.10;99.90;;;;;;5024027;28;20099;-81
2023/04/03 06:15:28;;;;;;;22.00;4.25;;;-0.10;99.90;;;;;;5023979;28;20037;-82
2023/04/03 06:17:53;;;;;;;24.52;5.10;;;-0.10;99.90;;;;;;5021037;28;20402;-81
2023/04/03 06:20:21;;;;;;;14.98;4.25;;;-0.10;99.90;;;;;;5025129;28;20330;-81
2023/04/03 06:22:47;;;;;;;8.77;3.83;;;-0.10;99.90;;;;;;5021339;28;20061;-82
2023/04/03 06:25:18;;;;;;;13.57;3.67;;;0.00;99.90;;;;;;5022602;28;20069;-84
2023/04/03 06:27:44;;;;;;;20.55;3.97;;;0.00;99.90;;;;;;5024193;28;20501;-82
2023/04/03 06:30:13;;;;;;;27.98;7.80;;;0.00;99.90;;;;;;5023072;28;20044;-84
2023/04/03 06:32:38;;;;;;;8.65;3.70;;;0.00;99.90;;;;;;5024780;28;20034;-81
2023/04/03 06:35:05;;;;;;;17.42;4.07;;;0.10;99.90;;;;;;5020764;28;20479;-82
2023/04/03 06:37:32;;;;;;;17.95;4.85;;;0.10;99.90;;;;;;5022889;28;20026;-82
2023/04/03 06:39:58;;;;;;;14.40;6.13;;;0.10;99.90;;;;;;5024471;28;20032;-82
2023/04/03 06:42:23;;;;;;;13.05;4.18;;;0.10;99.90;;;;;;5021025;28;20469;-82
2023/04/03 06:44:49;;;;;;;23.92;5.15;;;0.10;99.90;;;;;;5023427;28;20136;-81
2023/04/03 06:47:16;;;;;;;21.27;3.97;;;0.20;99.90;;;;;;5017031;28;20026;-82
2023/04/03 06:49:42;;;;;;;10.90;3.80;;;0.20;99.90;;;;;;5019887;28;20017;-82
2023/04/03 06:52:08;;;;;;;7.35;3.20;;;0.30;99.90;;;;;;5021092;28;20152;-82
2023/04/03 06:54:34;;;;;;;21.17;5.40;;;0.30;99.90;;;;;;5023422;28;20030;-81
2023/04/03 06:57:00;;;;;;;20.50;4.65;;;0.30;99.90;;;;;;5017413;28;20030;-81
2023/04/03 06:59:26;;;;;;;15.10;4.18;;;0.30;99.90;;;;;;5024012;28;20084;-81
2023/04/03 07:01:52;;;;;;;14.55;3.85;;;0.40;99.90;;;;;;5025968;28;21167;-82
2023/04/03 07:04:19;;;;;;;22.95;4.15;;;0.40;99.90;;;;;;5021523;28;20037;-82
2023/04/03 07:06:46;;;;;;;13.45;4.10;;;0.50;99.90;;;;;;5012673;28;20045;-82
2023/04/03 07:09:13;;;;;;;6.30;2.97;;;0.50;99.90;;;;;;5023783;28;20026;-81
2023/04/03 07:11:39;;;;;;;8.70;3.13;;;0.60;99.90;;;;;;5017228;28;20057;-81
2023/04/03 07:14:07;;;;;;;18.88;4.68;;;0.60;99.90;;;;;;5024284;28;20321;-83
2023/04/03 07:16:34;;;;;;;12.70;3.55;;;0.70;99.90;;;;;;5023763;28;21173;-81
2023/04/03 07:19:00;;;;;;;17.88;3.80;;;0.70;99.90;;;;;;5027053;28;20060;-82
2023/04/03 07:21:25;;;;;;;12.35;3.42;;;0.70;99.90;;;;;;5026394;28;20049;-81
2023/04/03 07:23:51;;;;;;;11.30;3.10;;;0.70;99.90;;;;;;5018125;28;20041;-82
2023/04/03 07:26:17;;;;;;;15.27;4.28;;;0.80;99.90;;;;;;5020496;28;20037;-82
2023/04/03 07:28:44;;;;;;;11.82;3.17;;;0.80;99.90;;;;;;5018349;28;20042;-81
2023/04/03 07:31:13;;;;;;;13.50;3.58;;;0.90;99.90;;;;;;5027240;28;20021;-82
2023/04/03 07:33:39;;;;;;;18.98;3.70;;;1.00;99.90;;;;;;5023225;28;20378;-82
2023/04/03 07:36:07;;;;;;;18.02;3.85;;;1.00;99.90;;;;;;5024484;28;20009;-81
2023/04/03 07:38:33;;;;;;;10.98;3.25;;;1.00;99.90;;;;;;5018899;28;20029;-82
2023/04/03 07:40:59;;;;;;;7.20;3.30;;;1.10;99.90;;;;;;5024612;28;20026;-81
2023/04/03 07:43:24;;;;;;;12.27;2.88;;;1.20;99.90;;;;;;5023851;28;20029;-81
2023/04/03 07:45:51;;;;;;;18.90;3.67;;;1.30;99.90;;;;;;5027184;28;20103;-82
2023/04/03 07:48:25;;;;;;;11.90;2.97;;;1.40;99.90;;;;;;5025593;28;20033;-82
2023/04/03 07:50:51;;;;;;;12.15;3.88;;;1.40;99.90;;;;;;5027150;28;20099;-83
2023/04/03 07:53:18;;;;;;;10.68;3.20;;;1.50;99.90;;;;;;5023965;28;20037;-81
2023/04/03 07:55:47;;;;;;;10.00;3.13;;;1.50;99.90;;;;;;5015656;28;20120;-81
2023/04/03 07:58:16;;;;;;;12.80;3.55;;;1.60;99.90;;;;;;5013626;28;20057;-81
2023/04/03 08:00:42;;;;;;;12.15;3.13;;;1.60;99.90;;;;;;5004723;28;20482;-84
2023/04/03 08:03:10;;;;;;;14.60;3.85;;;1.60;99.90;;;;;;5025283;28;20113;-81
2023/04/03 08:05:45;;;;;;;9.70;3.85;;;1.70;99.90;;;;;;5023831;28;20056;-81
2023/04/03 08:08:14;;;;;;;15.43;3.45;;;1.70;99.90;;;;;;5026607;28;20099;-81
2023/04/03 08:10:41;;;;;;;13.35;3.15;;;1.70;99.90;;;;;;5018696;28;20079;-82
2023/04/03 08:13:08;;;;;;;14.93;3.85;;;1.70;99.90;;;;;;5022358;28;20458;-81
2023/04/03 08:15:34;;;;;;;12.00;3.60;;;1.70;99.90;;;;;;5024250;28;20234;-81
2023/04/03 08:18:00;;;;;;;12.20;3.03;;;1.70;99.90;;;;;;5027871;28;20027;-81
2023/04/03 08:20:26;;;;;;;13.82;2.90;;;1.70;99.90;;;;;;5020217;28;20017;-82
2023/04/03 08:22:52;;;;;;;13.13;2.72;;;1.70;99.90;;;;;;5025131;28;20091;-82
2023/04/03 08:25:18;;;;;;;10.43;3.03;;;1.70;99.90;;;;;;5015785;28;20042;-84
2023/04/03 08:27:44;;;;;;;12.93;3.17;;;1.80;99.90;;;;;;5008023;28;20421;-82
2023/04/03 08:30:11;;;;;;;11.68;2.95;;;1.80;99.90;;;;;;5024887;28;20103;-81
2023/04/03 08:32:36;;;;;;;6.80;3.15;;;1.90;99.90;;;;;;5023766;28;20029;-83
2023/04/03 08:35:04;;;;;;;20.88;3.83;;;1.80;99.90;;;;;;5025577;28;20179;-82
2023/04/03 08:37:30;;;;;;;15.63;4.30;;;1.90;99.90;;;;;;5021357;28;20025;-83
2023/04/03 08:39:55;;;;;;;11.90;3.45;;;1.90;99.90;;;;;;5018929;28;20044;-83
2023/04/03 08:42:48;;;;;;;14.75;5.07;;;1.90;99.90;;;;;;5019776;28;20029;-83
2023/04/03 08:45:44;;;;;;;16.98;3.92;;;1.90;99.90;;;;;;5018049;28;20060;-83
2023/04/03 08:48:21;;;;;;;12.95;3.08;;;1.90;99.90;;;;;;5021465;28;20063;-82
2023/04/03 08:51:00;;;;;;;8.15;3.47;;;1.90;99.90;;;;;;5019364;28;20037;-84
2023/04/03 08:53:32;;;;;;;23.77;4.30;;;2.00;99.90;;;;;;5018764;28;20478;-84
2023/04/03 08:56:00;;;;;;;14.00;4.72;;;2.00;99.90;;;;;;5022717;28;20030;-83
2023/04/03 08:58:33;;;;;;;10.10;3.65;;;2.00;99.90;;;;;;5020719;28;20037;-83
2023/04/03 09:01:22;;;;;;;8.63;3.30;;;2.10;99.90;;;;;;5018010;28;20437;-83
2023/04/03 09:03:48;;;;;;;19.92;5.97;;;2.10;99.90;;;;;;5020800;28;20490;-84
2023/04/03 09:06:20;;;;;;;9.90;3.97;;;2.20;99.90;;;;;;5024595;28;20049;-85
2023/04/03 09:08:45;;;;;;;12.90;3.65;;;2.20;99.90;;;;;;5015777;28;20037;-84
2023/04/03 09:11:23;;;;;;;15.43;4.70;;;2.30;99.90;;;;;;5020756;28;20390;-85
2023/04/03 09:14:13;;;;;;;13.68;3.78;;;2.30;99.90;;;;;;5026295;28;20112;-84
2023/04/03 09:16:47;;;;;;;14.52;3.70;;;2.40;99.90;;;;;;5024815;28;20029;-82
2023/04/03 09:19:32;;;;;;;11.55;3.55;;;2.40;99.90;;;;;;5020778;28;20048;-83
2023/04/03 09:22:02;;;;;;;13.18;3.30;;;2.50;99.90;;;;;;5017453;28;20041;-83
2023/04/03 09:24:30;;;;;;;8.82;3.58;;;2.50;99.90;;;;;;5020470;28;20095;-84
2023/04/03 09:27:04;;;;;;;13.00;3.25;;;2.60;99.90;;;;;;5025737;28;20060;-83
2023/04/03 09:29:30;;;;;;;16.45;3.45;;;2.60;99.90;;;;;;5021012;28;20053;-82
2023/04/03 09:32:22;;;;;;;11.52;3.10;;;2.70;99.90;;;;;;5022664;28;20034;-84
2023/04/03 09:34:50;;;;;;;9.70;2.80;;;2.80;99.90;;;;;;5019261;28;20360;-85
2023/04/03 09:37:43;;;;;;;9.63;2.72;;;2.90;99.90;;;;;;5019172;28;20075;-83
2023/04/03 09:40:38;;;;;;;15.55;3.38;;;3.00;99.90;;;;;;5022255;28;20028;-83
2023/04/03 09:43:24;;;;;;;14.60;3.42;;;3.00;99.90;;;;;;5024164;28;20136;-82
2023/04/03 09:45:50;;;;;;;;;;;3.00;99.90;;;;;;5020056;28;20045;-82
2023/04/03 09:48:19;;;;;;;13.50;3.30;;;3.00;99.90;;;;;;5020614;28;19952;-83
2023/04/03 09:50:51;;;;;;;12.85;3.00;;;3.10;99.90;;;;;;5022258;28;20116;-83
2023/04/03 09:53:37;;;;;;;17.15;2.92;;;3.20;99.90;;;;;;5011369;28;20109;-84
2023/04/03 09:56:22;;;;;;;;;;;3.30;99.90;;;;;;5016533;28;20037;-84
2023/04/03 09:58:59;;;;;;;8.52;2.55;;;3.40;99.90;;;;;;5025440;28;19935;-81
2023/04/03 10:01:28;;;;;;;10.82;3.58;;;3.40;99.90;;;;;;5020709;28;20025;-82
2023/04/03 10:04:09;;;;;;;5.35;2.42;;;3.30;99.90;;;;;;5023631;28;20104;-83
2023/04/03 10:06:40;;;;;;;15.82;4.03;;;3.30;99.90;;;;;;5021656;28;20096;-84
2023/04/03 10:09:27;;;;;;;12.93;4.15;;;3.30;99.90;;;;;;5025622;28;20505;-82
2023/04/03 10:12:14;;;;;;;13.07;3.65;;;3.20;99.90;;;;;;5020370;28;20029;-83
2023/04/03 10:14:59;;;;;;;7.90;2.22;;;3.20;99.90;;;;;;5022032;28;20124;-85
2023/04/03 10:17:47;;;;;;;5.97;1.92;;;3.30;99.90;;;;;;5022030;28;20036;-83
2023/04/03 10:20:38;;;;;;;9.68;2.58;;;3.40;99.90;;;;;;5020270;28;20437;-85
2023/04/03 10:23:14;;;;;;;11.30;3.35;;;3.50;99.90;;;;;;5023690;28;20037;-84
2023/04/03 10:25:39;;;;;;;5.07;2.25;;;3.50;99.90;;;;;;5021210;28;20113;-82
2023/04/03 10:28:19;;;;;;;9.70;2.65;;;3.60;99.90;;;;;;5024747;28;20211;-82
2023/04/03 10:31:06;;;;;;;5.10;1.92;;;3.70;99.90;;;;;;5021393;28;20030;-83
2023/04/03 10:33:36;;;;;;;12.82;2.78;;;3.70;99.90;;;;;;5020640;28;20661;-83
2023/04/03 10:36:17;;;;;;;7.00;2.08;;;3.70;99.90;;;;;;5014959;28;20033;-82
2023/04/03 10:39:04;;;;;;;9.77;2.20;;;3.70;99.90;;;;;;5016440;28;20017;-83
2023/04/03 10:41:51;;;;;;;10.82;2.75;;;3.70;99.90;;;;;;5024510;28;20030;-82
2023/04/03 10:44:29;;;;;;;6.80;2.08;;;3.70;99.90;;;;;;5016100;28;20037;-82
2023/04/03 10:47:26;;;;;;;14.68;4.32;;;3.70;99.90;;;;;;5024205;28;20025;-81
2023/04/03 10:49:55;;;;;;;11.82;4.00;;;3.60;99.90;;;;;;5021294;28;20026;-81
2023/04/03 10:52:47;;;;;;;6.90;3.20;;;3.50;99.90;;;;;;5027661;28;20355;-81
2023/04/03 10:55:36;;;;;;;7.90;2.92;;;3.50;99.90;;;;;;5020321;28;20483;-84
2023/04/03 10:58:03;;;;;;;7.30;3.85;;;3.40;99.90;;;;;;5023453;28;20033;-82
2023/04/03 11:00:36;;;;;;;8.93;3.30;;;3.40;99.90;;;;;;5018956;28;20025;-82
2023/04/03 11:03:26;;;;;;;6.68;2.60;;;3.40;99.90;;;;;;5024801;28;20037;-81
2023/04/03 11:05:57;;;;;;;8.75;2.65;;;3.50;99.90;;;;;;5021815;28;20132;-80
2023/04/03 11:08:44;;;;;;;9.85;2.25;;;3.50;99.90;;;;;;5018624;28;20061;-81
2023/04/03 11:11:21;;;;;;;9.80;2.38;;;3.60;99.90;;;;;;5025142;28;20033;-84
2023/04/03 11:14:09;;;;;;;7.60;2.35;;;3.60;99.90;;;;;;5025251;28;20445;-82
2023/04/03 11:16:41;;;;;;;5.85;2.03;;;3.70;99.90;;;;;;5025637;28;20028;-81
2023/04/03 11:19:38;;;;;;;10.48;2.47;;;3.70;99.90;;;;;;5025136;28;20044;-82
2023/04/03 11:22:23;;;;;;;12.30;2.15;;;3.90;99.90;;;;;;5015122;28;20458;-81
2023/04/03 11:25:12;;;;;;;6.90;1.80;;;4.00;99.90;;;;;;5013301;28;20048;-83
2023/04/03 11:27:50;;;;;;;6.68;2.80;;;4.00;99.90;;;;;;5020471;28;20029;-80
2023/04/03 11:30:21;;;;;;;5.45;1.85;;;4.00;99.90;;;;;;5020955;28;20109;-83
2023/04/03 11:33:04;;;;;;;13.05;2.40;;;4.00;99.90;;;;;;5024064;28;20030;-84
2023/04/03 11:35:31;;;;;;;7.13;2.20;;;4.20;99.90;;;;;;5025773;28;20026;-82
2023/04/03 11:38:00;;;;;;;10.77;2.22;;;4.30;99.90;;;;;;5022569;28;20030;-86
2023/04/03 11:40:32;;;;;;;9.07;2.35;;;4.40;99.90;;;;;;5021422;28;20026;-82
2023/04/03 11:43:17;;;;;;;3.28;1.90;;;4.50;99.90;;;;;;5020707;28;20040;-82
2023/04/03 11:45:55;;;;;;;9.27;2.55;;;4.60;99.90;;;;;;5028218;28;20087;-82
2023/04/03 11:48:33;;;;;;;5.55;2.17;;;4.50;99.90;;;;;;5026349;28;20029;-81
2023/04/03 11:51:20;;;;;;;6.45;2.70;;;4.40;99.90;;;;;;5016535;28;20095;-81
2023/04/03 11:53:46;;;;;;;6.80;2.70;;;4.40;99.90;;;;;;5022537;28;20468;-84
2023/04/03 11:56:24;;;;;;;6.13;2.38;;;4.30;99.90;;;;;;5027248;28;20034;-83
2023/04/03 11:59:13;;;;;;;7.47;2.58;;;4.20;99.90;;;;;;5017927;28;20044;-81
2023/04/03 12:01:48;;;;;;;4.90;2.40;;;4.20;99.90;;;;;;5023438;28;20131;-81
2023/04/03 12:04:18;;;;;;;8.50;2.13;;;4.20;99.90;;;;;;5015699;28;20559;-81
2023/04/03 12:06:48;;;;;;;5.70;2.58;;;4.10;99.90;;;;;;5026668;28;20033;-81
2023/04/03 12:09:31;;;;;;;6.65;2.55;;;4.10;99.90;;;;;;5027628;28;20029;-84
2023/04/03 12:11:59;;;;;;;11.18;2.13;;;4.10;99.90;;;;;;5027425;28;20063;-82
2023/04/03 12:14:27;;;;;;;5.38;2.58;;;4.10;99.90;;;;;;5016629;28;20745;-81
2023/04/03 12:16:57;;;;;;;8.00;2.30;;;4.10;99.90;;;;;;5013842;28;20505;-81
2023/04/03 12:19:40;;;;;;;7.82;2.30;;;4.10;99.90;;;;;;5023084;28;20168;-81
2023/04/03 12:22:11;;;;;;;8.88;2.25;;;4.30;99.90;;;;;;5027769;28;20526;-83
2023/04/03 12:24:49;;;;;;;5.72;2.50;;;4.40;99.90;;;;;;5015973;28;20464;-82
2023/04/03 12:27:43;;;;;;;7.00;2.17;;;4.40;99.90;;;;;;5007946;28;20293;-83
2023/04/03 12:30:27;;;;;;;8.88;2.15;;;4.40;99.90;;;;;;5017210;28;20045;-81
2023/04/03 12:33:11;;;;;;;9.20;2.92;;;4.30;99.90;;;;;;5026523;28;20037;-81
2023/04/03 12:35:43;;;;;;;6.75;2.30;;;4.30;99.90;;;;;;5025730;28;20491;-83
2023/04/03 12:38:44;;;;;;;10.65;3.30;;;4.30;99.90;;;;;;5020583;28;20033;-81
2023/04/03 12:41:22;;;;;;;7.40;2.45;;;4.20;99.90;;;;;;5021853;28;20037;-82
2023/04/03 12:44:06;;;;;;;7.28;2.28;;;4.20;99.90;;;;;;5017057;28;20029;-84
2023/04/03 12:47:04;;;;;;;8.95;2.30;;;4.10;99.90;;;;;;5024566;28;20037;-82
2023/04/03 12:49:36;;;;;;;4.90;2.13;;;4.20;99.90;;;;;;5020986;28;20398;-82
2023/04/03 12:52:12;;;;;;;6.25;2.28;;;4.20;99.90;;;;;;5016545;28;20041;-81
2023/04/03 12:54:39;;;;;;;7.88;2.30;;;4.10;99.90;;;;;;5010050;28;20029;-81
2023/04/03 12:57:21;;;;;;;9.55;2.53;;;4.20;99.90;;;;;;5017196;28;20077;-81
2023/04/03 12:59:47;;;;;;;6.40;2.20;;;4.30;99.90;;;;;;5021839;28;20029;-81
2023/04/03 13:02:39;;;;;;;7.60;2.72;;;4.30;99.90;;;;;;5021653;28;20040;-83
2023/04/03 13:05:09;;;;;;;3.65;2.13;;;4.30;99.90;;;;;;5018984;28;20064;-83